Time;durP1;ratioP1;P1;durP2;ratioP2;P2;SDS_P1;SDS_P2;PMS_P1;PMS_P2;Temp;Humidity;BMP_temperature;BMP_pressure;BME280_temperature;BME280_humidity;BME280_pressure;Samples;Min_cycle;Max_cycle;Signal;HPM_P1;HPM_P2
2022/12/23 00:01:29;;;;;;;22.52;9.55;;;;;;;1.69;91.94;94523.16;5021159;28;20255;-81
2022/12/23 00:03:58;;;;;;;15.88;7.38;;;;;;;1.73;91.85;94524.22;5026132;28;20291;-83
2022/12/23 00:06:25;;;;;;;17.40;8.57;;;;;;;1.70;91.65;94524.78;5024226;28;20204;-82
2022/12/23 00:08:56;;;;;;;22.05;10.70;;;;;;;1.67;91.12;94525.31;5031698;28;20719;-82
2022/12/23 00:11:26;;;;;;;20.83;8.63;;;;;;;1.77;90.55;94530.63;5032698;28;20203;-82
2022/12/23 00:16:37;;;;;;;17.38;7.18;;;;;;;1.83;90.71;94534.03;5029313;28;20210;-82
2022/12/23 00:19:04;;;;;;;23.88;11.00;;;;;;;1.72;91.41;94538.66;5012357;28;20294;-82
2022/12/23 00:21:31;;;;;;;22.38;9.15;;;;;;;1.74;91.62;94545.31;5025021;28;20258;-82
2022/12/23 00:23:57;;;;;;;29.45;9.35;;;;;;;1.89;91.64;94554.31;5020983;28;20200;-82
2022/12/23 00:26:27;;;;;;;18.45;8.73;;;;;;;1.82;92.03;94548.47;5018618;28;20278;-82
2022/12/23 00:28:56;;;;;;;18.27;7.70;;;;;;;1.84;91.98;94536.44;5022111;28;20197;-80
2022/12/23 00:31:23;;;;;;;26.45;11.52;;;;;;;1.86;91.41;94526.28;5014898;28;20331;-81
2022/12/23 00:33:52;;;;;;;26.08;12.85;;;;;;;1.87;91.15;94535.91;5021647;28;20293;-82
2022/12/23 00:36:21;;;;;;;12.48;8.18;;;;;;;1.78;91.72;94534.84;5015601;28;20623;-82
2022/12/23 00:44:18;;;;;;;21.02;12.00;;;;;;;1.80;91.20;94540.72;5028321;28;20269;-82
2022/12/23 00:46:45;;;;;;;24.15;12.55;;;;;;;1.78;91.75;94534.84;5021174;28;20970;-82
2022/12/23 00:51:57;;;;;;;17.80;9.10;;;;;;;1.85;91.15;94524.69;5031164;28;20195;-81
2022/12/23 00:54:23;;;;;;;21.98;9.98;;;;;;;1.80;91.07;94519.38;5024962;28;20507;-81
2022/12/23 00:56:52;;;;;;;27.17;9.48;;;;;;;1.60;92.09;94525.63;5031629;28;20720;-82
2022/12/23 00:59:18;;;;;;;22.42;9.43;;;;;;;1.67;92.05;94515.44;5018134;28;20232;-82
2022/12/23 01:07:15;;;;;;;29.85;8.38;;;;;;;1.27;94.50;94532.41;5018224;28;20261;-80
2022/12/23 01:09:41;;;;;;;44.75;25.48;;;;;;;1.17;95.26;94532.44;5030825;28;20297;-82
2022/12/23 01:12:10;;;;;;;19.38;10.38;;;;;;;1.10;95.68;94534.56;5018316;28;20212;-81
2022/12/23 01:14:36;;;;;;;18.10;10.55;;;;;;;1.08;96.00;94536.75;5019212;28;20205;-82
2022/12/23 01:17:04;;;;;;;26.30;11.88;;;;;;;0.97;95.99;94529.81;5029972;28;20729;-81
2022/12/23 01:19:30;;;;;;;20.20;10.52;;;;;;;0.96;96.84;94526.34;5017867;28;20209;-81
2022/12/23 01:21:57;;;;;;;21.67;10.57;;;;;;;1.15;96.43;94533.78;5024007;28;20235;-81
2022/12/23 01:24:27;;;;;;;29.85;11.07;;;;;;;1.33;96.47;94531.34;5022897;28;20713;-82
2022/12/23 01:26:54;;;;;;;22.90;13.13;;;;;;;1.50;94.72;94530.22;5024730;28;20289;-81
2022/12/23 01:29:22;;;;;;;42.50;10.23;;;;;;;1.52;94.24;94533.38;5023885;28;20259;-81
2022/12/23 01:31:49;;;;;;;30.40;11.70;;;;;;;1.63;93.64;94524.28;5017345;28;20248;-81
2022/12/23 01:34:16;;;;;;;30.38;12.15;;;;;;;1.83;93.77;94520.69;5029026;28;20208;-82
2022/12/23 01:36:42;;;;;;;22.25;10.00;;;;;;;1.88;92.86;94521.47;5017506;28;20196;-82
2022/12/23 01:39:09;;;;;;;36.08;12.18;;;;;;;1.82;92.52;94527.91;5016523;28;20272;-82
2022/12/23 01:44:54;;;;;;;20.30;10.82;;;;;;;2.02;91.21;94514.44;5016708;28;20327;-82
2022/12/23 01:47:27;;;;;;;25.02;11.00;;;;;;;1.62;92.24;94517.34;5028132;28;20711;-82
2022/12/23 01:49:57;;;;;;;53.40;14.23;;;;;;;1.64;93.95;94501.84;5019754;28;20219;-82
2022/12/23 01:52:24;;;;;;;47.05;14.70;;;;;;;1.73;93.07;94501.00;5016456;28;20192;-82
2022/12/23 01:54:52;;;;;;;21.30;10.88;;;;;;;1.77;93.23;94493.25;5030352;28;20283;-82
2022/12/23 01:57:19;;;;;;;27.90;12.88;;;;;;;1.91;93.45;94499.56;5030742;28;20736;-81
2022/12/23 02:05:19;;;;;;;29.17;12.82;;;;;;;2.22;91.66;94478.75;5024050;28;20562;-81
2022/12/23 02:10:38;;;;;;;21.08;10.45;;;;;;;2.31;91.76;94470.97;5016611;28;20366;-81
2022/12/23 02:13:15;;;;;;;19.20;11.05;;;;;;;2.26;91.60;94473.66;5030160;28;20188;-81
2022/12/23 02:18:51;;;;;;;25.35;8.30;;;;;;;2.08;92.54;94456.44;5016456;28;20218;-81
2022/12/23 02:21:46;;;;;;;27.73;13.48;;;;;;;2.12;91.98;94452.94;5024240;28;20201;-81
2022/12/23 02:24:47;;;;;;;23.02;10.98;;;;;;;2.07;92.00;94452.97;5016625;28;20196;-81
2022/12/23 02:27:21;;;;;;;20.13;10.90;;;;;;;2.15;92.42;94456.94;5020636;28;20201;-81
2022/12/23 02:30:23;;;;;;;16.17;9.20;;;;;;;1.92;92.47;94466.41;5027046;28;20721;-80
2022/12/23 02:33:23;;;;;;;35.95;15.57;;;;;;;1.89;94.25;94450.97;5015969;28;20650;-81
2022/12/23 02:36:00;;;;;;;32.63;12.32;;;;;;;2.00;93.52;94467.72;5028930;28;20197;-81
2022/12/23 02:38:38;;;;;;;46.47;12.52;;;;;;;1.97;93.43;94455.72;5018080;28;20250;-80
2022/12/23 02:41:15;;;;;;;28.05;11.95;;;;;;;2.17;93.28;94453.97;5026281;28;20279;-81
2022/12/23 02:43:46;;;;;;;30.23;10.95;;;;;;;2.14;92.74;94466.81;5021207;28;20208;-81
2022/12/23 02:46:20;;;;;;;31.40;12.13;;;;;;;2.21;92.87;94471.03;5018755;28;20558;-81
2022/12/23 02:48:54;;;;;;;24.25;12.85;;;;;;;2.43;92.22;94458.03;5020654;28;20200;-81
2022/12/23 02:51:26;;;;;;;26.60;12.13;;;;;;;2.46;91.41;94460.91;5025531;28;20288;-81
2022/12/23 02:53:56;;;;;;;24.35;11.52;;;;;;;2.34;92.27;94463.16;5028797;28;20246;-81
2022/12/23 02:56:25;;;;;;;34.60;15.20;;;;;;;2.34;92.03;94449.00;5030217;28;20192;-81
2022/12/23 02:58:56;;;;;;;11.23;5.47;;;;;;;2.22;91.52;94464.59;5036711;28;20231;-83
2022/12/23 03:01:26;;;;;;;19.45;12.00;;;;;;;1.64;92.43;94469.81;5033473;28;20251;-82
2022/12/23 03:03:54;;;;;;;18.98;10.35;;;;;;;1.51;93.11;94470.41;5019816;28;20275;-81
2022/12/23 03:06:25;;;;;;;31.63;14.25;;;;;;;1.53;93.26;94460.25;5022536;28;20200;-81
2022/12/23 03:08:56;;;;;;;16.95;7.70;;;;;;;1.45;93.36;94458.97;5026939;28;20462;-80
2022/12/23 03:11:38;;;;;;;22.30;12.25;;;;;;;1.39;93.43;94462.72;5026186;28;20263;-81
2022/12/23 03:14:42;;;;;;;14.63;10.57;;;;;;;1.31;93.40;94480.09;5022382;28;20299;-80
2022/12/23 03:17:23;;;;;;;29.17;11.63;;;;;;;1.34;93.94;94468.91;5026425;28;20286;-82
2022/12/23 03:19:59;;;;;;;27.48;14.60;;;;;;;1.41;92.94;94473.91;5026131;28;20228;-82
2022/12/23 03:22:35;;;;;;;26.70;13.90;;;;;;;1.33;93.04;94471.84;5013279;28;20315;-82
2022/12/23 03:25:08;;;;;;;19.05;10.70;;;;;;;1.39;93.37;94471.53;5016934;28;20193;-81
2022/12/23 03:27:41;;;;;;;18.75;9.60;;;;;;;1.56;92.49;94463.16;5020087;28;20193;-82
2022/12/23 03:30:12;;;;;;;28.65;12.50;;;;;;;1.84;92.39;94459.00;5026415;28;20671;-80
2022/12/23 03:32:47;;;;;;;30.45;11.90;;;;;;;1.85;90.82;94463.28;5014193;28;20193;-81
2022/12/23 03:35:19;;;;;;;24.95;12.50;;;;;;;1.95;91.47;94452.50;5024963;28;20694;-82
2022/12/23 03:37:50;;;;;;;25.08;11.70;;;;;;;1.90;90.14;94465.13;5026124;28;20596;-80
2022/12/23 03:40:22;;;;;;;27.77;13.75;;;;;;;1.68;90.28;94468.19;5020888;28;20274;-80
2022/12/23 03:42:53;;;;;;;24.50;11.15;;;;;;;1.81;90.57;94464.09;5028682;28;20205;-80
2022/12/23 03:45:25;;;;;;;28.38;13.90;;;;;;;1.99;90.43;94464.25;5024683;28;20888;-82
2022/12/23 03:47:56;;;;;;;29.20;11.80;;;;;;;2.26;89.71;94454.97;5027192;28;20251;-82
2022/12/23 03:50:25;;;;;;;18.33;7.97;;;;;;;1.74;89.87;94483.09;5025656;28;20192;-80
2022/12/23 03:52:56;;;;;;;19.58;10.55;;;;;;;2.05;90.80;94468.47;5019430;28;20274;-81
2022/12/23 03:55:27;;;;;;;35.00;12.13;;;;;;;1.95;90.43;94454.38;5031144;28;20200;-81
2022/12/23 03:58:01;;;;;;;32.80;14.90;;;;;;;2.28;89.58;94466.19;5034597;28;20278;-82
2022/12/23 04:00:34;;;;;;;27.52;11.73;;;;;;;2.24;89.15;94475.81;5028914;28;20247;-81
2022/12/23 04:03:14;;;;;;;38.92;12.15;;;;;;;2.28;89.78;94471.53;5022675;28;20739;-82
2022/12/23 04:05:49;;;;;;;30.88;15.07;;;;;;;2.25;90.24;94474.75;5026166;28;20201;-81
2022/12/23 04:08:22;;;;;;;22.00;12.48;;;;;;;2.26;89.24;94479.81;5025422;28;20705;-81
2022/12/23 04:10:50;;;;;;;30.05;13.80;;;;;;;2.39;88.56;94478.38;5019883;28;20634;-81
2022/12/23 04:13:16;;;;;;;54.83;18.20;;;;;;;2.28;88.39;94466.19;5018921;28;20751;-81
2022/12/23 04:15:43;;;;;;;23.40;11.65;;;;;;;2.29;88.97;94467.78;5023783;28;20209;-81
2022/12/23 04:18:11;;;;;;;31.85;12.68;;;;;;;2.33;89.33;94474.94;5025514;28;20777;-80
2022/12/23 04:20:39;;;;;;;38.88;17.05;;;;;;;2.34;89.50;94476.53;5020653;28;20262;-80
2022/12/23 04:23:08;;;;;;;25.25;14.27;;;;;;;2.39;89.09;94463.13;5018267;28;20213;-81
2022/12/23 04:25:35;;;;;;;25.50;11.95;;;;;;;2.34;89.97;94478.41;5023499;28;20247;-82
2022/12/23 04:28:02;;;;;;;32.97;18.52;;;;;;;2.29;90.02;94470.44;5025220;28;20196;-80
2022/12/23 04:30:29;;;;;;;31.00;14.70;;;;;;;2.27;90.77;94469.94;5021154;28;20228;-80
2022/12/23 04:32:55;;;;;;;35.22;16.23;;;;;;;2.44;90.48;94459.63;5018464;28;20279;-81
2022/12/23 04:35:22;;;;;;;33.60;15.82;;;;;;;2.61;89.72;94456.53;5022718;28;20212;-82
2022/12/23 04:37:49;;;;;;;39.33;17.63;;;;;;;2.64;89.08;94454.09;5015135;28;20201;-81
2022/12/23 04:40:18;;;;;;;31.58;15.35;;;;;;;2.49;89.92;94448.88;5024259;28;20286;-81
2022/12/23 04:42:44;;;;;;;39.38;19.23;;;;;;;2.39;90.24;94438.28;5029426;28;20201;-81
2022/12/23 04:45:11;;;;;;;49.50;23.42;;;;;;;2.12;91.15;94447.59;5021698;28;20990;-80
2022/12/23 04:47:39;;;;;;;77.40;36.42;;;;;;;2.00;92.51;94460.50;5017870;28;20457;-76
2022/12/23 04:50:07;;;;;;;49.20;21.73;;;;;;;1.86;93.14;94470.22;5027609;28;20205;-78
2022/12/23 04:52:34;;;;;;;36.60;15.50;;;;;;;1.98;93.54;94457.31;5027653;28;20345;-77
2022/12/23 04:55:01;;;;;;;30.92;14.82;;;;;;;2.07;93.53;94454.84;5019829;28;20305;-79
2022/12/23 04:57:29;;;;;;;39.40;10.63;;;;;;;1.97;93.64;94471.72;5025978;28;20200;-80
2022/12/23 04:59:55;;;;;;;29.52;14.02;;;;;;;1.74;94.87;94477.75;5019412;28;20240;-80
2022/12/23 05:02:22;;;;;;;14.57;9.93;;;;;;;1.66;94.47;94481.00;5011355;28;20427;-80
2022/12/23 05:04:49;;;;;;;34.28;14.38;;;;;;;1.62;95.03;94479.97;5022579;28;20545;-80
2022/12/23 05:07:16;;;;;;;39.13;15.20;;;;;;;1.86;94.94;94474.75;5017172;28;20208;-80
2022/12/23 05:09:42;;;;;;;28.58;14.68;;;;;;;2.06;95.16;94483.41;5017874;28;20241;-79
2022/12/23 05:12:09;;;;;;;51.40;14.40;;;;;;;2.13;94.47;94477.78;5029829;28;20200;-80
2022/12/23 05:14:37;;;;;;;26.52;10.63;;;;;;;1.91;94.81;94496.09;5018528;28;20204;-78
2022/12/23 05:17:04;;;;;;;30.98;13.57;;;;;;;3.09;100.00;94492.16;5029393;28;20301;-80
2022/12/23 05:19:31;;;;;;;27.20;14.50;;;;;;;5.58;100.00;94489.16;5018438;28;20339;-79
2022/12/23 05:21:58;;;;;;;28.20;12.02;;;;;;;6.18;100.00;94481.72;5024308;28;20249;-79
2022/12/23 05:24:25;;;;;;;46.17;18.33;;;;;;;6.63;100.00;94476.38;5022961;28;20200;-79
2022/12/23 05:26:51;;;;;;;62.83;26.38;;;;;;;7.65;96.56;94467.25;5021754;28;20204;-79
2022/12/23 05:29:18;;;;;;;76.50;33.10;;;;;;;7.89;90.83;94476.81;5017747;28;20608;-79
2022/12/23 05:31:46;;;;;;;73.63;30.08;;;;;;;6.55;81.25;94495.97;5016441;28;20294;-78
2022/12/23 05:34:13;;;;;;;66.72;26.20;;;;;;;5.59;82.92;94488.88;5017571;28;20695;-79
2022/12/23 05:36:40;;;;;;;55.03;23.17;;;;;;;5.01;84.10;94483.25;5026410;28;20258;-80
2022/12/23 05:39:06;;;;;;;63.72;24.25;;;;;;;4.26;84.69;94492.25;5029275;28;20232;-79
2022/12/23 05:41:33;;;;;;;49.55;24.30;;;;;;;3.83;86.59;94490.72;5026218;28;20733;-79
2022/12/23 05:44:00;;;;;;;49.20;22.27;;;;;;;3.63;87.80;94480.28;5018854;28;20211;-79
2022/12/23 05:46:27;;;;;;;54.10;23.08;;;;;;;3.29;88.97;94480.44;5023349;28;20205;-79
2022/12/23 05:48:55;;;;;;;62.08;26.00;;;;;;;2.98;91.19;94490.69;5022909;28;20269;-78
2022/12/23 05:51:22;;;;;;;46.65;22.83;;;;;;;3.02;91.45;94486.34;5025458;28;20699;-79
2022/12/23 05:53:48;;;;;;;41.33;18.73;;;;;;;3.01;90.49;94490.09;5014819;28;20200;-78
2022/12/23 05:56:15;;;;;;;66.75;30.23;;;;;;;2.78;91.66;94492.47;5013899;28;20263;-79
2022/12/23 05:58:45;;;;;;;72.78;28.08;;;;;;;2.84;93.23;94486.00;5033863;28;20683;-79
2022/12/23 06:01:13;;;;;;;52.67;23.15;;;;;;;2.93;92.50;94493.41;5019071;28;20201;-78
2022/12/23 06:03:40;;;;;;;53.28;23.02;;;;;;;2.84;92.66;94491.34;5023500;28;20267;-79
2022/12/23 06:06:08;;;;;;;55.15;21.63;;;;;;;2.93;92.55;94488.84;5010641;28;20263;-79
2022/12/23 06:08:35;;;;;;;61.85;25.38;;;;;;;2.87;92.47;94492.63;5026474;28;20208;-80
2022/12/23 06:11:04;;;;;;;51.42;19.38;;;;;;;2.89;93.82;94495.81;5019263;28;20194;-79
2022/12/23 06:13:31;;;;;;;53.22;21.63;;;;;;;2.99;93.59;94498.44;5023643;28;20263;-79
2022/12/23 06:15:57;;;;;;;48.35;20.63;;;;;;;2.84;93.14;94495.91;5020269;28;20254;-80
2022/12/23 06:18:24;;;;;;;36.35;15.98;;;;;;;3.06;92.70;94492.72;5026761;28;20197;-79
2022/12/23 06:20:51;;;;;;;56.90;23.05;;;;;;;3.04;93.05;94489.53;5012688;28;20228;-80
2022/12/23 06:23:19;;;;;;;42.35;19.15;;;;;;;3.02;93.03;94497.84;5023246;28;20259;-79
2022/12/23 06:25:48;;;;;;;59.58;26.20;;;;;;;2.93;92.30;94493.41;5020083;28;20211;-79
2022/12/23 06:28:15;;;;;;;42.13;16.83;;;;;;;3.03;92.66;94493.28;5016677;28;20239;-78
2022/12/23 06:30:42;;;;;;;52.67;20.60;;;;;;;3.05;91.98;94485.78;5025820;28;20238;-79
2022/12/23 06:33:09;;;;;;;41.75;17.83;;;;;;;3.11;92.12;94490.00;5029535;28;20207;-80
2022/12/23 06:35:36;;;;;;;22.08;12.65;;;;;;;3.04;91.53;94500.22;5026901;28;20196;-78
2022/12/23 06:38:02;;;;;;;36.30;19.27;;;;;;;2.70;93.03;94506.47;5020414;28;20674;-77
2022/12/23 06:40:31;;;;;;;45.55;17.85;;;;;;;2.56;94.21;94502.84;5029320;28;20228;-79
2022/12/23 06:43:00;;;;;;;37.88;18.60;;;;;;;2.45;95.31;94512.81;5029342;28;20722;-78
2022/12/23 06:45:27;;;;;;;39.90;20.42;;;;;;;2.52;94.76;94509.81;5026186;28;20209;-79
2022/12/23 06:47:54;;;;;;;46.58;19.17;;;;;;;2.60;93.48;94505.75;5015693;28;20736;-82
2022/12/23 06:50:21;;;;;;;24.52;13.70;;;;;;;2.65;93.38;94503.81;5017048;28;20259;-84
2022/12/23 06:52:48;;;;;;;18.90;8.90;;;;;;;2.65;93.65;94508.38;5016606;28;20204;-79
2022/12/23 06:55:15;;;;;;;38.63;17.33;;;;;;;2.70;93.33;94501.09;5015670;28;20244;-84
2022/12/23 06:57:44;;;;;;;35.67;16.48;;;;;;;2.70;94.69;94511.81;5009969;28;20197;-83
2022/12/23 07:00:12;;;;;;;32.60;16.27;;;;;;;2.78;94.29;94513.84;5023647;28;20231;-83
2022/12/23 07:02:39;;;;;;;43.22;14.90;;;;;;;2.94;95.67;94511.03;5029121;28;20278;-80
2022/12/23 07:05:06;;;;;;;47.10;18.67;;;;;;;3.02;94.98;94513.88;5015515;28;20675;-82
2022/12/23 07:07:33;;;;;;;42.80;18.98;;;;;;;3.14;93.71;94516.22;5019573;28;20214;-81
2022/12/23 07:10:01;;;;;;;34.72;16.58;;;;;;;3.23;93.49;94517.16;5027182;28;20286;-80
2022/12/23 07:12:27;;;;;;;41.15;17.38;;;;;;;3.45;92.49;94512.09;5009798;28;20205;-82
2022/12/23 07:14:57;;;;;;;40.60;17.13;;;;;;;3.62;91.83;94510.84;5023210;28;20295;-78
2022/12/23 07:17:23;;;;;;;37.25;15.80;;;;;;;3.63;90.11;94518.59;5011688;28;20252;-78
2022/12/23 07:19:53;;;;;;;34.05;17.75;;;;;;;3.70;91.00;94513.66;5024817;28;20228;-77
2022/12/23 07:22:20;;;;;;;34.65;13.82;;;;;;;3.73;89.37;94517.66;5024041;28;20222;-77
2022/12/23 07:24:46;;;;;;;42.13;13.90;;;;;;;3.52;87.97;94512.56;5015596;28;20290;-76
2022/12/23 07:27:13;;;;;;;30.05;14.77;;;;;;;3.31;88.50;94521.09;5028926;28;20266;-77
2022/12/23 07:29:40;;;;;;;6.68;5.72;;;;;;;3.33;88.36;94519.72;5015087;28;20741;-77
2022/12/23 07:32:08;;;;;;;15.20;9.48;;;;;;;3.08;87.43;94517.31;5020836;28;20205;-77
2022/12/23 07:34:35;;;;;;;28.85;12.68;;;;;;;2.91;88.92;94516.94;5029604;28;20204;-78
2022/12/23 07:37:02;;;;;;;17.73;9.30;;;;;;;2.89;87.87;94524.47;5032739;28;20295;-77
2022/12/23 07:39:28;;;;;;;16.20;6.47;;;;;;;2.88;87.74;94528.22;5028274;28;20379;-76
2022/12/23 07:41:55;;;;;;;22.15;11.05;;;;;;;2.98;88.94;94531.59;5022372;28;20200;-78
2022/12/23 07:44:22;;;;;;;25.63;11.68;;;;;;;3.13;88.18;94531.47;5019828;28;20575;-77
2022/12/23 07:46:49;;;;;;;27.38;11.38;;;;;;;3.42;87.19;94531.41;5021688;28;20669;-77
2022/12/23 07:49:19;;;;;;;28.05;11.65;;;;;;;3.71;86.69;94530.53;5025569;28;20200;-78
2022/12/23 07:51:46;;;;;;;38.72;14.25;;;;;;;3.84;84.77;94529.81;5025166;28;20204;-78
2022/12/23 07:54:13;;;;;;;28.13;14.35;;;;;;;4.02;84.27;94531.75;5032424;28;20347;-79
2022/12/23 07:56:40;;;;;;;36.08;15.48;;;;;;;4.01;83.28;94530.16;5031436;28;20224;-78
2022/12/23 07:59:06;;;;;;;25.17;13.50;;;;;;;4.05;83.17;94536.53;5033389;28;20556;-78
2022/12/23 08:01:33;;;;;;;30.88;15.23;;;;;;;4.02;83.23;94539.78;5019628;28;20639;-76
2022/12/23 08:04:00;;;;;;;23.23;12.63;;;;;;;3.95;83.74;94534.00;5025300;28;20201;-77
2022/12/23 08:06:31;;;;;;;28.73;13.27;;;;;;;4.14;83.62;94540.16;5024522;28;20204;-78
2022/12/23 08:08:57;;;;;;;23.70;10.63;;;;;;;4.39;82.42;94532.81;5032009;28;20726;-77
2022/12/23 08:11:25;;;;;;;28.73;13.65;;;;;;;4.62;81.42;94526.59;5018884;28;20667;-78
2022/12/23 08:13:53;;;;;;;27.55;14.00;;;;;;;4.75;80.11;94533.09;5025078;28;20213;-77
2022/12/23 08:16:20;;;;;;;24.88;12.88;;;;;;;4.79;79.81;94536.75;5026275;28;20212;-77
2022/12/23 08:18:47;;;;;;;31.83;13.80;;;;;;;4.93;80.10;94535.72;5031709;28;20261;-77
2022/12/23 08:21:16;;;;;;;36.72;15.40;;;;;;;4.99;79.57;94539.91;5017779;28;20240;-78
2022/12/23 08:23:45;;;;;;;37.13;15.02;;;;;;;5.25;79.93;94536.78;5019836;28;20215;-78
2022/12/23 08:26:14;;;;;;;35.30;12.50;;;;;;;5.10;77.79;94537.06;5018456;28;20216;-78
2022/12/23 08:28:43;;;;;;;32.45;13.90;;;;;;;5.00;77.57;94546.88;5023070;28;20587;-78
2022/12/23 08:31:12;;;;;;;23.35;12.02;;;;;;;5.34;78.30;94535.00;5024720;28;20275;-77
2022/12/23 08:33:40;;;;;;;33.35;14.18;;;;;;;5.39;77.42;94526.84;5021314;28;20258;-76
2022/12/23 08:36:08;;;;;;;21.73;11.15;;;;;;;5.39;76.53;94529.53;5014604;28;20259;-76
2022/12/23 08:38:36;;;;;;;19.45;8.02;;;;;;;5.39;76.08;94531.44;5021616;28;20204;-76
2022/12/23 08:41:09;;;;;;;25.35;11.38;;;;;;;5.40;75.88;94533.81;5027744;28;20723;-77
2022/12/23 08:43:35;;;;;;;41.42;13.00;;;;;;;5.45;75.55;94531.06;5021907;28;20266;-77
2022/12/23 08:46:02;;;;;;;26.17;11.07;;;;;;;5.25;75.06;94542.94;5031902;28;20227;-77
2022/12/23 08:48:29;;;;;;;25.67;11.45;;;;;;;5.31;75.32;94530.25;5031477;28;20298;-77
2022/12/23 08:50:56;;;;;;;25.88;10.77;;;;;;;5.27;75.90;94534.59;5030880;28;20216;-78
2022/12/23 08:53:22;;;;;;;38.28;14.73;;;;;;;5.42;75.99;94525.47;5030568;28;20205;-79
2022/12/23 08:55:49;;;;;;;23.25;10.73;;;;;;;5.48;74.63;94527.75;5018290;28;20617;-77
2022/12/23 08:58:17;;;;;;;35.97;15.32;;;;;;;5.65;74.98;94519.91;5038231;28;20681;-77
2022/12/23 09:00:44;;;;;;;24.02;11.95;;;;;;;5.72;73.99;94516.81;5025929;28;20233;-78
2022/12/23 09:03:11;;;;;;;16.00;9.55;;;;;;;5.83;74.27;94517.41;5022545;28;20224;-77
2022/12/23 09:05:41;;;;;;;20.48;10.10;;;;;;;5.95;73.42;94518.53;5024699;28;20205;-77
2022/12/23 09:08:08;;;;;;;19.27;8.55;;;;;;;6.13;72.95;94524.06;5011303;28;20201;-78
2022/12/23 09:10:40;;;;;;;25.27;9.82;;;;;;;6.57;72.44;94510.69;5024389;28;20790;-78
2022/12/23 09:13:07;;;;;;;19.20;9.13;;;;;;;6.81;70.60;94505.00;5011355;28;20197;-77
2022/12/23 09:15:37;;;;;;;17.77;10.00;;;;;;;7.00;70.54;94512.88;5017180;28;20691;-78
2022/12/23 09:18:05;;;;;;;21.02;9.73;;;;;;;7.14;68.94;94511.69;5017292;28;20209;-78
2022/12/23 09:20:32;;;;;;;22.58;11.45;;;;;;;7.04;69.25;94511.97;5023186;28;20592;-77
2022/12/23 09:23:00;;;;;;;22.15;9.90;;;;;;;7.01;68.89;94507.19;5024101;28;20594;-78
2022/12/23 09:25:27;;;;;;;21.45;11.32;;;;;;;7.10;68.98;94510.75;5009348;28;20256;-78
2022/12/23 09:27:54;;;;;;;43.83;23.30;;;;;;;6.81;69.44;94515.00;5023870;28;20207;-78
2022/12/23 09:30:21;;;;;;;27.48;13.35;;;;;;;6.73;70.61;94516.50;5018454;28;20220;-78
2022/12/23 09:32:49;;;;;;;23.25;12.00;;;;;;;6.92;69.70;94514.44;5028065;28;20753;-78
2022/12/23 09:35:16;;;;;;;19.83;9.32;;;;;;;7.02;68.53;94511.47;5010836;28;20351;-77
2022/12/23 09:37:43;;;;;;;27.52;12.73;;;;;;;7.17;68.58;94506.81;5023915;28;20255;-77
2022/12/23 09:40:11;;;;;;;34.58;13.82;;;;;;;7.41;68.47;94509.94;5018914;28;20232;-77
2022/12/23 09:42:49;;;;;;;26.38;12.00;;;;;;;7.65;68.22;94510.38;5030329;28;20204;-78
2022/12/23 09:45:33;;;;;;;32.45;16.73;;;;;;;7.93;67.80;94504.72;5030687;28;20288;-77
2022/12/23 09:48:01;;;;;;;75.85;34.40;;;;;;;8.00;66.10;94507.75;5016991;28;20655;-78
2022/12/23 09:50:31;;;;;;;42.17;18.88;;;;;;;7.57;68.12;94508.41;5030141;28;20207;-78
2022/12/23 09:53:02;;;;;;;20.65;10.38;;;;;;;7.71;67.65;94498.31;5030454;28;20255;-77
2022/12/23 09:55:37;;;;;;;19.80;11.40;;;;;;;7.94;67.40;94500.91;5028216;28;20192;-78
2022/12/23 09:58:16;;;;;;;39.50;16.98;;;;;;;8.11;66.77;94495.56;5034686;28;20283;-77
2022/12/23 10:00:51;;;;;;;38.22;16.83;;;;;;;7.94;67.58;94500.91;5025226;28;20674;-77
2022/12/23 10:03:27;;;;;;;44.28;21.80;;;;;;;7.97;66.52;94495.69;5023439;28;20253;-78
2022/12/23 10:06:02;;;;;;;38.83;18.05;;;;;;;8.11;66.67;94500.97;5017452;28;20206;-77
2022/12/23 10:08:34;;;;;;;31.75;16.92;;;;;;;8.39;66.16;94491.50;5027762;28;20258;-78
2022/12/23 10:11:06;;;;;;;37.13;15.18;;;;;;;8.36;65.89;94502.13;5018760;28;20197;-77
2022/12/23 10:13:38;;;;;;;45.30;22.80;;;;;;;8.79;65.25;94502.94;5016970;28;20218;-77
2022/12/23 10:16:08;;;;;;;46.00;21.65;;;;;;;8.94;65.35;94492.75;5019295;28;20671;-78
2022/12/23 10:18:45;;;;;;;79.88;43.08;;;;;;;8.90;64.56;94485.28;5023294;28;20219;-78
2022/12/23 10:21:19;;;;;;;49.80;19.92;;;;;;;8.72;64.33;94483.72;5022478;28;20219;-78
2022/12/23 10:23:51;;;;;;;74.78;39.70;;;;;;;8.82;64.43;94490.69;5017422;28;20188;-79
2022/12/23 10:26:32;;;;;;;50.17;23.63;;;;;;;8.75;64.81;94490.38;5030004;28;20215;-77
2022/12/23 10:29:08;;;;;;;41.50;21.58;;;;;;;8.98;63.83;94472.88;5029217;28;20220;-78
2022/12/23 10:31:47;;;;;;;44.65;22.45;;;;;;;9.63;62.70;94463.59;5016196;28;20718;-78
2022/12/23 10:34:22;;;;;;;43.75;20.10;;;;;;;9.89;61.75;94460.75;5016663;28;20205;-79
2022/12/23 10:36:58;;;;;;;43.45;21.88;;;;;;;10.15;61.19;94457.91;5009713;28;20205;-79
2022/12/23 10:39:32;;;;;;;45.05;22.88;;;;;;;9.79;61.24;94450.31;5025266;28;20277;-78
2022/12/23 10:42:11;;;;;;;44.42;21.92;;;;;;;9.68;61.74;94455.31;5019812;28;20224;-79
2022/12/23 10:45:00;;;;;;;45.17;21.13;;;;;;;9.52;61.58;94451.56;5028556;28;20242;-79
2022/12/23 10:47:39;;;;;;;40.88;17.52;;;;;;;9.24;61.92;94454.69;5016246;28;20656;-78
2022/12/23 10:50:28;;;;;;;44.17;21.13;;;;;;;8.93;62.74;94456.84;5028864;28;20200;-78
2022/12/23 10:52:59;;;;;;;75.32;35.20;;;;;;;9.34;62.49;94444.63;5019980;28;20227;-79
2022/12/23 10:55:30;;;;;;;30.70;14.38;;;;;;;9.30;62.29;94438.28;5015488;28;20197;-79
2022/12/23 10:58:05;;;;;;;38.80;18.70;;;;;;;9.27;62.58;94437.84;5027056;28;20282;-78
2022/12/23 11:00:31;;;;;;;40.17;20.15;;;;;;;9.21;63.64;94431.00;5018584;28;20235;-78
2022/12/23 11:03:11;;;;;;;41.80;18.48;;;;;;;9.63;62.53;94431.94;5026134;28;20197;-79
2022/12/23 11:05:40;;;;;;;22.10;10.57;;;;;;;9.91;62.28;94436.88;5028993;28;20283;-90
2022/12/23 11:08:09;;;;;;;30.80;15.50;;;;;;;9.88;62.15;94427.50;5037605;28;20205;-85
2022/12/23 11:10:36;;;;;;;42.30;19.90;;;;;;;10.15;61.91;94428.91;5029822;28;20234;-87
2022/12/23 11:13:03;;;;;;;34.40;17.10;;;;;;;10.04;60.88;94430.44;5027906;28;20193;-85
2022/12/23 11:15:33;;;;;;;42.58;20.63;;;;;;;9.85;61.31;94432.78;5029852;28;20204;-87
2022/12/23 11:18:06;;;;;;;50.30;22.98;;;;;;;10.28;62.52;94427.09;5025231;28;20247;-87
2022/12/23 11:20:34;;;;;;;48.10;21.98;;;;;;;10.32;60.00;94428.03;5025714;28;20213;-77
2022/12/23 11:23:04;;;;;;;69.60;35.35;;;;;;;9.80;60.81;94430.28;5026196;28;20652;-76
2022/12/23 11:25:36;;;;;;;67.78;37.00;;;;;;;9.38;62.59;94429.38;5031211;28;20235;-77
2022/12/23 11:28:07;;;;;;;64.07;31.98;;;;;;;9.45;65.02;94441.25;5019573;28;20664;-77
2022/12/23 11:30:37;;;;;;;39.13;19.40;;;;;;;9.39;65.49;94437.16;5023370;28;20244;-77
2022/12/23 11:33:05;;;;;;;39.70;17.33;;;;;;;9.40;65.03;94443.34;5026342;28;20841;-78
2022/12/23 11:35:34;;;;;;;38.97;17.98;;;;;;;9.51;65.02;94433.75;5011782;28;20211;-78
2022/12/23 11:38:03;;;;;;;44.50;20.95;;;;;;;9.25;65.22;94437.38;5025645;28;20729;-79
2022/12/23 11:40:36;;;;;;;61.97;28.77;;;;;;;9.35;65.26;94438.91;5023198;28;20764;-77
2022/12/23 11:43:05;;;;;;;47.42;18.70;;;;;;;9.36;64.78;94437.00;5027030;28;20205;-78
2022/12/23 11:45:35;;;;;;;54.65;25.98;;;;;;;9.40;65.30;94448.75;5025315;28;20200;-78
2022/12/23 11:48:03;;;;;;;66.22;24.65;;;;;;;9.49;64.10;94452.22;5019097;28;20306;-79
2022/12/23 11:50:37;;;;;;;48.78;24.58;;;;;;;9.13;64.87;94450.75;5019413;28;20197;-80
2022/12/23 11:53:12;;;;;;;91.43;45.20;;;;;;;8.83;65.58;94457.97;5021617;28;20261;-78
2022/12/23 11:55:46;;;;;;;88.93;45.35;;;;;;;8.72;65.92;94445.13;5018700;28;20555;-79
2022/12/23 11:58:19;;;;;;;69.70;31.60;;;;;;;8.78;65.95;94449.22;5039659;28;20189;-80
2022/12/23 12:00:55;;;;;;;60.63;28.20;;;;;;;8.92;65.39;94444.44;5032240;28;20607;-79
2022/12/23 12:03:27;;;;;;;52.38;22.67;;;;;;;9.36;64.68;94431.59;5019830;28;20189;-78
2022/12/23 12:05:57;;;;;;;85.00;46.92;;;;;;;9.42;64.17;94430.31;5024783;28;20212;-79
2022/12/23 12:08:30;;;;;;;56.40;27.85;;;;;;;9.58;63.90;94417.81;5012438;28;20205;-79
2022/12/23 12:11:07;;;;;;;52.08;25.95;;;;;;;9.94;63.12;94420.78;5022108;28;20643;-79